createdAt,value
2017-04-02T00:00:18.335Z,0
2017-04-02T00:01:31.573Z,0
2017-04-02T00:02:44.803Z,0
2017-04-02T00:03:58.019Z,0
2017-04-02T00:05:10.752Z,0
2017-04-02T00:06:23.989Z,0
2017-04-02T00:07:37.253Z,0
2017-04-02T00:08:50.493Z,0
2017-04-02T00:10:03.709Z,0
2017-04-02T00:11:16.947Z,0
2017-04-02T00:12:30.178Z,0
2017-04-02T00:13:43.393Z,0
2017-04-02T00:14:56.619Z,0
2017-04-02T00:16:09.863Z,0
2017-04-02T00:17:23.093Z,0
2017-04-02T00:18:36.029Z,0
2017-04-02T00:19:49.238Z,0
2017-04-02T00:21:01.939Z,0
2017-04-02T00:22:15.171Z,0
2017-04-02T00:23:27.912Z,0
2017-04-02T00:24:41.158Z,0
2017-04-02T00:25:54.360Z,0
2017-04-02T00:27:07.586Z,0
2017-04-02T00:28:20.292Z,0
2017-04-02T00:29:33.022Z,0
2017-04-02T00:30:46.277Z,0
2017-04-02T00:31:59.512Z,0
2017-04-02T00:33:12.719Z,0
2017-04-02T00:34:25.435Z,0
2017-04-02T00:35:38.664Z,0
2017-04-02T00:36:51.370Z,0
2017-04-02T00:38:04.618Z,0
2017-04-02T00:39:17.380Z,0
2017-04-02T00:40:30.596Z,0
2017-04-02T00:41:43.856Z,0
2017-04-02T00:42:57.113Z,0
2017-04-02T00:44:10.360Z,0
2017-04-02T00:45:23.596Z,0
2017-04-02T00:46:36.803Z,0
2017-04-02T00:47:50.035Z,0
2017-04-02T00:49:02.750Z,0
2017-04-02T00:50:16.005Z,0
2017-04-02T00:51:28.742Z,0
2017-04-02T00:52:41.968Z,0
2017-04-02T00:53:54.674Z,0
2017-04-02T00:55:07.945Z,0
2017-04-02T00:56:21.222Z,0
2017-04-02T00:57:34.453Z,0
2017-04-02T00:58:47.706Z,0
2017-04-02T01:00:00.395Z,0
2017-04-02T01:01:13.647Z,0
2017-04-02T01:02:26.865Z,0
2017-04-02T01:03:40.084Z,0
2017-04-02T01:04:53.291Z,0
2017-04-02T01:06:06.040Z,0
2017-04-02T01:07:18.746Z,0
2017-04-02T01:08:31.975Z,0
2017-04-02T01:09:45.249Z,0
2017-04-02T01:10:58.495Z,0
2017-04-02T01:12:11.739Z,0
2017-04-02T01:13:24.963Z,0
2017-04-02T01:14:38.170Z,0
2017-04-02T01:15:51.409Z,0
2017-04-02T01:17:04.617Z,0
2017-04-02T01:18:17.856Z,0
2017-04-02T01:19:31.134Z,0
2017-04-02T01:20:43.853Z,0
2017-04-02T01:21:57.099Z,0
2017-04-02T01:23:09.815Z,0
2017-04-02T01:24:23.005Z,0
2017-04-02T01:25:35.725Z,0
2017-04-02T01:26:48.930Z,0
2017-04-02T01:28:02.203Z,0
2017-04-02T01:29:14.403Z,0
2017-04-02T01:30:27.668Z,0
2017-04-02T01:31:40.925Z,0
2017-04-02T01:32:53.653Z,0
2017-04-02T01:34:06.365Z,0
2017-04-02T01:35:19.600Z,0
2017-04-02T01:36:32.820Z,0
2017-04-02T01:37:46.062Z,0
2017-04-02T01:38:58.761Z,0
2017-04-02T01:40:11.490Z,0
2017-04-02T01:41:24.799Z,0
2017-04-02T01:42:37.008Z,0
2017-04-02T01:43:50.237Z,0
2017-04-02T01:45:02.421Z,0
2017-04-02T01:46:15.637Z,0
2017-04-02T01:47:28.851Z,0
2017-04-02T01:48:42.081Z,0
2017-04-02T01:49:55.307Z,0
2017-04-02T01:51:08.030Z,0
2017-04-02T01:52:21.250Z,0
2017-04-02T01:53:34.472Z,0
2017-04-02T01:54:47.696Z,0
2017-04-02T01:56:00.931Z,0
2017-04-02T01:57:13.632Z,0
2017-04-02T01:58:26.871Z,0
2017-04-02T01:59:40.102Z,0
2017-04-02T02:00:53.351Z,0
2017-04-02T02:02:06.591Z,0
2017-04-02T02:03:19.333Z,0
2017-04-02T02:04:32.526Z,0
2017-04-02T02:05:45.767Z,0
2017-04-02T02:06:59.022Z,0
2017-04-02T02:08:11.762Z,0
2017-04-02T02:09:24.990Z,0
2017-04-02T02:10:38.197Z,0
2017-04-02T02:11:51.462Z,0
2017-04-02T02:13:04.679Z,0
2017-04-02T02:14:17.928Z,0
2017-04-02T02:15:31.142Z,0
2017-04-02T02:16:44.369Z,0
2017-04-02T02:17:57.575Z,0
2017-04-02T02:19:10.777Z,0
2017-04-02T02:20:23.498Z,0
2017-04-02T02:21:36.730Z,0
2017-04-02T02:22:49.936Z,0
2017-04-02T02:24:03.176Z,0
2017-04-02T02:25:16.414Z,0
2017-04-02T02:26:29.672Z,0
2017-04-02T02:27:42.937Z,0
2017-04-02T02:28:56.192Z,0
2017-04-02T02:30:09.412Z,0
2017-04-02T02:31:22.628Z,0
2017-04-02T02:32:35.366Z,0
2017-04-02T02:33:48.593Z,0
2017-04-02T02:35:01.320Z,0
2017-04-02T02:36:14.558Z,0
2017-04-02T02:37:27.776Z,0
2017-04-02T02:38:41.032Z,0
2017-04-02T02:39:54.244Z,0
2017-04-02T02:41:07.457Z,0
2017-04-02T02:42:20.670Z,0
2017-04-02T02:43:33.927Z,0
2017-04-02T02:44:47.163Z,0
2017-04-02T02:45:59.877Z,0
2017-04-02T02:47:13.106Z,0
2017-04-02T02:48:26.400Z,0
2017-04-02T02:49:39.642Z,0
2017-04-02T02:50:52.378Z,0
2017-04-02T02:52:05.627Z,0
2017-04-02T02:53:18.336Z,0
2017-04-02T02:54:31.579Z,0
2017-04-02T02:55:44.774Z,0
2017-04-02T02:56:58.006Z,0
2017-04-02T02:58:11.243Z,0
2017-04-02T02:59:24.484Z,0
2017-04-02T03:00:37.194Z,0
2017-04-02T03:01:50.433Z,0
2017-04-02T03:03:03.662Z,0
2017-04-02T03:04:16.929Z,0
2017-04-02T03:05:30.169Z,0
2017-04-02T03:06:43.401Z,0
2017-04-02T03:07:56.630Z,0
2017-04-02T03:09:09.344Z,0
2017-04-02T03:10:22.018Z,0
2017-04-02T03:11:35.244Z,0
2017-04-02T03:12:47.942Z,0
2017-04-02T03:14:01.153Z,0
2017-04-02T03:15:14.385Z,0
2017-04-02T03:16:27.602Z,0
2017-04-02T03:17:40.849Z,0
2017-04-02T03:18:54.057Z,0
2017-04-02T03:20:07.299Z,0
2017-04-02T03:21:20.633Z,0
2017-04-02T03:22:33.408Z,0
2017-04-02T03:23:46.638Z,0
2017-04-02T03:24:59.865Z,0
2017-04-02T03:26:12.638Z,0
2017-04-02T03:27:25.889Z,0
2017-04-02T03:28:39.132Z,0
2017-04-02T03:29:52.374Z,0
2017-04-02T03:31:05.134Z,0
2017-04-02T03:32:18.369Z,0
2017-04-02T03:33:31.616Z,0
2017-04-02T03:34:44.337Z,0
2017-04-02T03:35:57.564Z,0
2017-04-02T03:37:10.845Z,0
2017-04-02T03:38:24.091Z,0
2017-04-02T03:39:36.815Z,0
2017-04-02T03:40:50.015Z,0
2017-04-02T03:42:03.267Z,0
2017-04-02T03:43:15.956Z,0
2017-04-02T03:44:28.638Z,0
2017-04-02T03:45:41.384Z,0
2017-04-02T03:46:54.639Z,0
2017-04-02T03:48:07.894Z,0
2017-04-02T03:49:21.138Z,0
2017-04-02T03:50:34.434Z,0
2017-04-02T03:51:47.688Z,0
2017-04-02T03:53:00.943Z,0
2017-04-02T03:54:13.141Z,0
2017-04-02T03:55:26.368Z,0
2017-04-02T03:56:39.579Z,0
2017-04-02T03:57:52.821Z,0
2017-04-02T03:59:06.081Z,0
2017-04-02T04:00:19.296Z,0
2017-04-02T04:01:32.536Z,0
2017-04-02T04:02:45.796Z,0
2017-04-02T04:03:59.072Z,0
2017-04-02T04:05:12.303Z,0
2017-04-02T04:06:25.017Z,0
2017-04-02T04:07:38.225Z,0
2017-04-02T04:08:51.447Z,0
2017-04-02T04:10:04.200Z,0
2017-04-02T04:11:17.432Z,0
2017-04-02T04:12:29.623Z,0
2017-04-02T04:13:42.832Z,0
2017-04-02T04:14:56.072Z,0
2017-04-02T04:16:09.319Z,0
2017-04-02T04:17:22.576Z,0
2017-04-02T04:18:35.809Z,0
2017-04-02T04:19:49.048Z,0
2017-04-02T04:21:02.288Z,0
2017-04-02T04:22:15.523Z,0
2017-04-02T04:23:28.745Z,0
2017-04-02T04:24:41.941Z,0
2017-04-02T04:25:55.203Z,0
2017-04-02T04:27:08.447Z,0
2017-04-02T04:28:21.670Z,0
2017-04-02T04:29:34.893Z,0
2017-04-02T04:30:48.189Z,0
2017-04-02T04:32:01.451Z,0
2017-04-02T04:33:14.705Z,0
2017-04-02T04:34:27.453Z,0
2017-04-02T04:35:40.189Z,0
2017-04-02T04:36:52.909Z,0
2017-04-02T04:38:06.162Z,0
2017-04-02T04:39:19.451Z,0
2017-04-02T04:40:32.618Z,0
2017-04-02T04:41:46.549Z,0
2017-04-02T04:43:00.493Z,0
2017-04-02T04:44:14.418Z,0
2017-04-02T04:45:28.369Z,0
2017-04-02T04:46:41.757Z,0
2017-04-02T04:47:55.118Z,0
2017-04-02T04:49:09.103Z,0
2017-04-02T04:50:23.066Z,0
2017-04-02T04:51:36.464Z,0
2017-04-02T04:52:50.424Z,0
2017-04-02T04:54:04.365Z,0
2017-04-02T04:55:17.761Z,0
2017-04-02T04:56:30.552Z,0
2017-04-02T04:57:43.928Z,0
2017-04-02T04:58:57.301Z,0
2017-04-02T05:00:11.295Z,0
2017-04-02T05:01:25.203Z,0
2017-04-02T05:02:38.547Z,0
2017-04-02T05:03:52.529Z,0
2017-04-02T05:05:05.946Z,0
2017-04-02T05:06:19.855Z,0
2017-04-02T05:07:33.773Z,0
2017-04-02T05:08:47.742Z,0
2017-04-02T05:10:01.666Z,0
2017-04-02T05:11:15.563Z,0
2017-04-02T05:12:29.483Z,0
2017-04-02T05:13:43.375Z,0
2017-04-02T05:14:57.277Z,0
2017-04-02T05:16:11.205Z,0
2017-04-02T05:17:25.140Z,0
2017-04-02T05:18:39.066Z,0
2017-04-02T05:19:52.994Z,0
2017-04-02T05:21:05.794Z,0
2017-04-02T05:22:19.611Z,0
2017-04-02T05:23:33.359Z,0
2017-04-02T05:24:47.327Z,0
2017-04-02T05:26:01.260Z,0
2017-04-02T05:27:15.241Z,0
2017-04-02T05:28:29.182Z,0
2017-04-02T05:29:43.202Z,0
2017-04-02T05:30:56.557Z,0
2017-04-02T05:32:10.481Z,0
2017-04-02T05:33:24.417Z,0
2017-04-02T05:34:38.387Z,0
2017-04-02T05:35:52.312Z,0
2017-04-02T05:37:05.696Z,0
2017-04-02T05:38:19.634Z,0
2017-04-02T05:39:33.021Z,0
2017-04-02T05:40:46.960Z,0
2017-04-02T05:42:00.336Z,0
2017-04-02T05:43:14.259Z,0
2017-04-02T05:44:28.170Z,0
2017-04-02T05:45:42.101Z,0
2017-04-02T05:46:56.003Z,0
2017-04-02T05:48:09.374Z,0
2017-04-02T05:49:22.219Z,0
2017-04-02T05:50:36.142Z,0
2017-04-02T05:51:50.076Z,0
2017-04-02T05:53:04.031Z,0
2017-04-02T05:54:17.933Z,0
2017-04-02T05:55:31.887Z,0
2017-04-02T05:56:45.245Z,0
2017-04-02T05:57:58.612Z,0
2017-04-02T05:59:12.519Z,0
2017-04-02T06:00:26.429Z,0
2017-04-02T06:01:40.352Z,0
2017-04-02T06:02:53.705Z,0
2017-04-02T06:04:07.615Z,0
2017-04-02T06:05:21.534Z,0
2017-04-02T06:06:35.470Z,0
2017-04-02T06:07:49.416Z,0
2017-04-02T06:09:03.353Z,0
2017-04-02T06:10:17.319Z,0
2017-04-02T06:11:31.259Z,0
2017-04-02T06:12:44.643Z,0
2017-04-02T06:13:58.632Z,0
2017-04-02T06:15:11.409Z,0
2017-04-02T06:16:25.379Z,0
2017-04-02T06:17:39.331Z,0
2017-04-02T06:18:53.287Z,0
2017-04-02T06:20:07.205Z,0
2017-04-02T06:21:21.117Z,0
2017-04-02T06:22:34.523Z,0
2017-04-02T06:23:48.471Z,0
2017-04-02T06:25:02.385Z,0
2017-04-02T06:26:15.764Z,0
2017-04-02T06:27:29.703Z,0
2017-04-02T06:28:43.626Z,0
2017-04-02T06:29:57.573Z,0
2017-04-02T06:31:11.482Z,0
2017-04-02T06:32:24.870Z,0
2017-04-02T06:33:38.825Z,0
2017-04-02T06:34:52.751Z,0
2017-04-02T06:36:06.690Z,0
2017-04-02T06:37:20.620Z,0
2017-04-02T06:38:34.601Z,0
2017-04-02T06:39:47.983Z,0
2017-04-02T06:41:01.921Z,0
2017-04-02T06:42:15.840Z,0
2017-04-02T06:43:29.792Z,0
2017-04-02T06:44:43.127Z,0
2017-04-02T06:45:57.137Z,0
2017-04-02T06:47:11.095Z,0
2017-04-02T06:48:25.002Z,0
2017-04-02T06:49:38.350Z,0
2017-04-02T06:50:52.336Z,0
2017-04-02T06:52:06.259Z,0
2017-04-02T06:53:18.498Z,0
2017-04-02T06:54:32.414Z,0
2017-04-02T06:55:45.795Z,0
2017-04-02T06:56:59.178Z,0
2017-04-02T06:58:13.123Z,0
2017-04-02T06:59:27.055Z,0
2017-04-02T07:00:40.970Z,0
2017-04-02T07:01:54.905Z,0
2017-04-02T07:03:08.825Z,0
2017-04-02T07:04:22.760Z,0
2017-04-02T07:05:36.692Z,0
2017-04-02T07:06:50.622Z,0
2017-04-02T07:08:04.017Z,0
2017-04-02T07:09:17.983Z,0
2017-04-02T07:10:31.334Z,0
2017-04-02T07:11:45.273Z,0
2017-04-02T07:12:59.209Z,0
2017-04-02T07:14:13.191Z,0
2017-04-02T07:15:26.612Z,0
2017-04-02T07:16:40.579Z,0
2017-04-02T07:17:54.497Z,0
2017-04-02T07:19:08.444Z,0
2017-04-02T07:20:21.244Z,0
2017-04-02T07:21:34.068Z,0
2017-04-02T07:22:48.000Z,0
2017-04-02T07:24:01.345Z,0
2017-04-02T07:25:14.159Z,0
2017-04-02T07:26:28.105Z,0
2017-04-02T07:27:42.002Z,0
2017-04-02T07:28:55.914Z,0
2017-04-02T07:30:09.887Z,0
2017-04-02T07:31:22.699Z,0
2017-04-02T07:32:36.627Z,0
2017-04-02T07:33:50.569Z,0
2017-04-02T07:35:04.529Z,0
2017-04-02T07:36:18.492Z,0
2017-04-02T07:37:30.737Z,0
2017-04-02T07:38:44.642Z,0
2017-04-02T07:39:58.568Z,0
2017-04-02T07:41:12.503Z,0
2017-04-02T07:42:25.879Z,0
2017-04-02T07:43:39.251Z,0
2017-04-02T07:44:53.334Z,0
2017-04-02T07:46:07.285Z,0
2017-04-02T07:47:20.655Z,0
2017-04-02T07:48:34.555Z,0
2017-04-02T07:49:48.481Z,0
2017-04-02T07:51:01.856Z,0
2017-04-02T07:52:15.241Z,0
2017-04-02T07:53:29.183Z,0
2017-04-02T07:54:43.118Z,0
2017-04-02T07:55:57.056Z,0
2017-04-02T07:57:10.421Z,0
2017-04-02T07:58:24.359Z,0
2017-04-02T07:59:38.328Z,0
2017-04-02T08:00:51.700Z,0
2017-04-02T08:02:05.660Z,0
2017-04-02T08:03:19.012Z,0
2017-04-02T08:04:32.979Z,0
2017-04-02T08:05:46.360Z,0
2017-04-02T08:07:00.293Z,0
2017-04-02T08:08:13.647Z,0
2017-04-02T08:09:27.552Z,0
2017-04-02T08:10:41.502Z,0
2017-04-02T08:11:55.424Z,0
2017-04-02T08:13:09.339Z,0
2017-04-02T08:14:23.277Z,0
2017-04-02T08:15:37.206Z,0
2017-04-02T08:16:51.144Z,0
2017-04-02T08:18:05.279Z,0
2017-04-02T08:19:19.432Z,0
2017-04-02T08:20:33.364Z,0
2017-04-02T08:21:47.321Z,0
2017-04-02T08:23:01.251Z,0
2017-04-02T08:24:15.177Z,0
2017-04-02T08:25:29.142Z,0
2017-04-02T08:26:43.096Z,0
2017-04-02T08:27:57.007Z,0
2017-04-02T08:29:10.435Z,0
2017-04-02T08:30:24.350Z,0
2017-04-02T08:31:38.296Z,0
2017-04-02T08:32:52.283Z,0
2017-04-02T08:34:05.646Z,0
2017-04-02T08:35:18.483Z,0
2017-04-02T08:36:31.867Z,0
2017-04-02T08:37:45.241Z,0
2017-04-02T08:38:59.189Z,0
2017-04-02T08:40:12.563Z,0
2017-04-02T08:41:26.494Z,0
2017-04-02T08:42:39.869Z,0
2017-04-02T08:43:53.844Z,0
2017-04-02T08:45:07.778Z,0
2017-04-02T08:46:21.151Z,0
2017-04-02T08:47:35.063Z,0
2017-04-02T08:48:48.991Z,4
2017-04-02T08:50:02.908Z,0
2017-04-02T08:51:16.865Z,4
2017-04-02T08:52:30.781Z,4
2017-04-02T08:53:44.133Z,8
2017-04-02T08:54:58.061Z,4
2017-04-02T08:56:11.487Z,8
2017-04-02T08:57:24.853Z,8
2017-04-02T08:58:38.224Z,12
2017-04-02T08:59:52.138Z,20
2017-04-02T09:01:05.502Z,28
2017-04-02T09:02:18.892Z,36
2017-04-02T09:03:32.851Z,52
2017-04-02T09:04:46.793Z,76
2017-04-02T09:05:59.620Z,100
2017-04-02T09:07:13.581Z,124
2017-04-02T09:08:27.562Z,160
2017-04-02T09:09:41.497Z,208
2017-04-02T09:10:55.423Z,256
2017-04-02T09:12:09.415Z,292
2017-04-02T09:13:23.375Z,344
2017-04-02T09:14:37.333Z,416
2017-04-02T09:15:51.264Z,496
2017-04-02T09:17:05.173Z,616
2017-04-02T09:18:19.095Z,716
2017-04-02T09:19:33.030Z,864
2017-04-02T09:20:46.973Z,988
2017-04-02T09:22:00.916Z,1152
2017-04-02T09:23:14.887Z,1376
2017-04-02T09:24:28.834Z,1480
2017-04-02T09:25:42.741Z,1616
2017-04-02T09:26:56.676Z,1740
2017-04-02T09:28:10.604Z,1808
2017-04-02T09:29:23.397Z,1768
2017-04-02T09:30:36.799Z,1908
2017-04-02T09:31:50.717Z,2168
2017-04-02T09:33:04.111Z,2440
2017-04-02T09:34:18.041Z,2344
2017-04-02T09:35:32.001Z,2184
2017-04-02T09:36:45.956Z,2236
2017-04-02T09:37:59.884Z,2324
2017-04-02T09:39:13.824Z,2448
2017-04-02T09:40:27.740Z,2520
2017-04-02T09:41:41.660Z,2644
2017-04-02T09:42:55.590Z,2828
2017-04-02T09:44:09.514Z,2884
2017-04-02T09:45:23.471Z,3032
2017-04-02T09:46:37.390Z,3044
2017-04-02T09:47:51.345Z,2940
2017-04-02T09:49:05.280Z,3148
2017-04-02T09:50:19.199Z,3768
2017-04-02T09:51:32.596Z,3868
2017-04-02T09:52:45.997Z,3604
2017-04-02T09:53:59.648Z,3996
2017-04-02T09:55:12.578Z,5044
2017-04-02T09:56:26.499Z,5964
2017-04-02T09:57:40.429Z,6672
2017-04-02T09:58:53.225Z,6644
2017-04-02T10:00:07.146Z,6596
2017-04-02T10:01:21.106Z,6224
2017-04-02T10:02:34.475Z,5788
2017-04-02T10:03:47.865Z,6080
2017-04-02T10:05:01.815Z,6660
2017-04-02T10:06:14.649Z,7284
2017-04-02T10:07:28.570Z,7476
2017-04-02T10:08:41.956Z,6984
2017-04-02T10:09:55.314Z,7568
2017-04-02T10:11:09.283Z,8328
2017-04-02T10:12:22.098Z,9316
2017-04-02T10:13:35.462Z,9304
2017-04-02T10:14:49.398Z,8632
2017-04-02T10:16:03.325Z,8856
2017-04-02T10:17:17.256Z,10144
2017-04-02T10:18:30.642Z,10812
2017-04-02T10:19:44.588Z,10192
2017-04-02T10:20:58.490Z,9260
2017-04-02T10:22:11.303Z,9300
2017-04-02T10:23:25.281Z,9292
2017-04-02T10:24:39.210Z,9624
2017-04-02T10:25:52.564Z,10248
2017-04-02T10:27:06.490Z,12160
2017-04-02T10:28:20.438Z,14628
2017-04-02T10:29:33.799Z,17088
2017-04-02T10:30:47.154Z,13648
2017-04-02T10:32:00.502Z,12052
2017-04-02T10:33:14.447Z,12244
2017-04-02T10:34:28.382Z,13772
2017-04-02T10:35:42.338Z,13520
2017-04-02T10:36:55.743Z,14300
2017-04-02T10:38:09.693Z,13404
2017-04-02T10:39:23.707Z,11356
2017-04-02T10:40:37.071Z,11508
2017-04-02T10:41:50.446Z,12820
2017-04-02T10:43:04.383Z,13680
2017-04-02T10:44:17.792Z,13776
2017-04-02T10:45:31.179Z,13488
2017-04-02T10:46:45.115Z,15604
2017-04-02T10:47:59.073Z,18816
2017-04-02T10:49:13.017Z,17920
2017-04-02T10:50:25.867Z,17568
2017-04-02T10:51:38.673Z,16648
2017-04-02T10:52:52.049Z,14544
2017-04-02T10:54:05.965Z,12372
2017-04-02T10:55:19.303Z,10652
2017-04-02T10:56:33.230Z,10252
2017-04-02T10:57:47.219Z,10628
2017-04-02T10:59:01.178Z,10044
2017-04-02T11:00:15.112Z,9916
2017-04-02T11:01:29.089Z,9552
2017-04-02T11:02:43.051Z,9048
2017-04-02T11:03:57.008Z,8728
2017-04-02T11:05:10.979Z,8320
2017-04-02T11:06:24.926Z,8608
2017-04-02T11:07:38.287Z,9724
2017-04-02T11:08:52.199Z,9924
2017-04-02T11:10:05.577Z,10044
2017-04-02T11:11:19.563Z,9864
2017-04-02T11:12:32.926Z,9268
2017-04-02T11:13:46.297Z,9332
2017-04-02T11:14:59.693Z,10628
2017-04-02T11:16:13.624Z,10340
2017-04-02T11:17:26.446Z,8836
2017-04-02T11:18:39.275Z,8376
2017-04-02T11:19:52.625Z,8508
2017-04-02T11:21:06.561Z,9096
2017-04-02T11:22:20.499Z,9988
2017-04-02T11:23:34.415Z,10240
2017-04-02T11:24:47.811Z,10520
2017-04-02T11:26:01.180Z,10368
2017-04-02T11:27:15.123Z,10112
2017-04-02T11:28:29.073Z,10280
2017-04-02T11:29:42.481Z,10152
2017-04-02T11:30:56.423Z,10312
2017-04-02T11:32:09.812Z,9384
2017-04-02T11:33:23.744Z,8704
2017-04-02T11:34:37.096Z,8812
2017-04-02T11:35:50.494Z,10180
2017-04-02T11:37:03.887Z,11848
2017-04-02T11:38:17.843Z,11592
2017-04-02T11:39:31.226Z,12460
2017-04-02T11:40:45.142Z,13828
2017-04-02T11:41:58.526Z,16500
2017-04-02T11:43:12.433Z,18368
2017-04-02T11:44:26.348Z,18528
2017-04-02T11:45:40.273Z,19872
2017-04-02T11:46:54.201Z,21248
2017-04-02T11:48:08.131Z,21248
2017-04-02T11:49:21.492Z,22016
2017-04-02T11:50:35.430Z,21792
2017-04-02T11:51:49.383Z,20416
2017-04-02T11:53:03.337Z,19616
2017-04-02T11:54:16.752Z,18368
2017-04-02T11:55:30.681Z,17440
2017-04-02T11:56:44.654Z,17440
2017-04-02T11:57:58.605Z,18464
2017-04-02T11:59:12.517Z,18752
2017-04-02T12:00:25.896Z,17824
2017-04-02T12:01:39.839Z,17920
2017-04-02T12:02:53.751Z,18176
2017-04-02T12:04:07.746Z,18976
2017-04-02T12:05:21.100Z,18528
2017-04-02T12:06:34.489Z,17984
2017-04-02T12:07:48.392Z,18912
2017-04-02T12:09:02.314Z,20192
2017-04-02T12:10:15.679Z,20896
2017-04-02T12:11:29.603Z,23168
2017-04-02T12:12:42.964Z,25536
2017-04-02T12:13:56.900Z,27424
2017-04-02T12:15:10.814Z,27808
2017-04-02T12:16:24.744Z,26848
2017-04-02T12:17:38.138Z,28288
2017-04-02T12:18:51.666Z,30272
2017-04-02T12:20:04.883Z,29792
2017-04-02T12:21:18.110Z,27648
2017-04-02T12:22:31.378Z,26656
2017-04-02T12:23:44.654Z,26592
2017-04-02T12:24:57.904Z,25792
2017-04-02T12:26:11.200Z,23680
2017-04-02T12:27:23.911Z,20704
2017-04-02T12:28:37.124Z,18528
2017-04-02T12:29:49.840Z,19648
2017-04-02T12:31:03.082Z,21408
2017-04-02T12:32:15.832Z,23616
2017-04-02T12:33:29.101Z,26880
2017-04-02T12:34:41.830Z,28448
2017-04-02T12:35:55.134Z,29600
2017-04-02T12:37:08.377Z,33632
2017-04-02T12:38:21.653Z,36000
2017-04-02T12:39:34.887Z,36960
2017-04-02T12:40:48.134Z,38528
2017-04-02T12:42:01.412Z,40608
2017-04-02T12:43:14.137Z,44256
2017-04-02T12:44:27.374Z,44160
2017-04-02T12:45:40.128Z,41792
2017-04-02T12:46:52.867Z,38304
2017-04-02T12:48:06.075Z,32704
2017-04-02T12:49:19.340Z,27264
2017-04-02T12:50:32.054Z,26144
2017-04-02T12:51:45.327Z,29152
2017-04-02T12:52:58.578Z,32544
2017-04-02T12:54:11.778Z,32544
2017-04-02T12:55:25.008Z,29696
2017-04-02T12:56:37.751Z,29184
2017-04-02T12:57:51.013Z,32320
2017-04-02T12:59:04.262Z,34720
2017-04-02T13:00:17.534Z,35424
2017-04-02T13:01:30.230Z,34848
2017-04-02T13:02:43.473Z,31904
2017-04-02T13:03:56.692Z,30944
2017-04-02T13:05:09.927Z,32256
2017-04-02T13:06:22.664Z,32128
2017-04-02T13:07:35.936Z,32480
2017-04-02T13:08:49.163Z,31360
2017-04-02T13:10:02.402Z,29728
2017-04-02T13:11:15.686Z,29856
2017-04-02T13:12:28.982Z,31776
2017-04-02T13:13:42.205Z,35232
2017-04-02T13:14:54.994Z,39200
2017-04-02T13:16:08.228Z,36480
2017-04-02T13:17:21.481Z,32864
2017-04-02T13:18:34.729Z,37760
2017-04-02T13:19:47.966Z,40608
2017-04-02T13:21:00.705Z,44992
2017-04-02T13:22:13.956Z,40896
2017-04-02T13:23:27.209Z,57696
2017-04-02T13:24:39.958Z,50784
2017-04-02T13:25:53.219Z,48352
2017-04-02T13:27:05.941Z,47104
2017-04-02T13:28:19.206Z,48544
2017-04-02T13:29:32.461Z,52064
2017-04-02T13:30:45.185Z,59680
2017-04-02T13:31:57.945Z,37664
2017-04-02T13:33:11.222Z,37760
2017-04-02T13:34:23.462Z,61600
2017-04-02T13:35:36.216Z,33536
2017-04-02T13:36:48.957Z,33536
2017-04-02T13:38:02.227Z,57184
2017-04-02T13:39:15.467Z,57408
2017-04-02T13:40:28.217Z,41472
2017-04-02T13:41:41.456Z,43776
2017-04-02T13:42:54.710Z,48224
2017-04-02T13:44:07.946Z,48096
2017-04-02T13:45:20.682Z,51648
2017-04-02T13:46:33.932Z,59104
2017-04-02T13:47:47.215Z,56416
2017-04-02T13:49:00.455Z,51296
2017-04-02T13:50:13.199Z,48640
2017-04-02T13:51:26.499Z,47168
2017-04-02T13:52:39.812Z,49120
2017-04-02T13:53:53.060Z,53888
2017-04-02T13:55:05.817Z,45344
2017-04-02T13:56:18.566Z,43776
2017-04-02T13:57:31.296Z,43328
2017-04-02T13:58:43.498Z,40288
2017-04-02T13:59:56.745Z,34368
2017-04-02T14:01:09.986Z,32960
2017-04-02T14:02:22.703Z,36192
2017-04-02T14:03:35.421Z,40320
2017-04-02T14:04:48.183Z,44160
2017-04-02T14:06:01.453Z,51520
2017-04-02T14:07:14.675Z,57472
2017-04-02T14:08:27.899Z,63552
2017-04-02T14:09:41.196Z,73824
2017-04-02T14:10:54.456Z,51552
2017-04-02T14:12:07.715Z,49664
2017-04-02T14:13:20.982Z,61856
2017-04-02T14:14:34.292Z,56384
2017-04-02T14:15:47.030Z,44160
2017-04-02T14:16:59.790Z,44256
2017-04-02T14:18:13.102Z,51488
2017-04-02T14:19:25.319Z,51168
2017-04-02T14:20:38.095Z,47648
2017-04-02T14:21:50.853Z,46688
2017-04-02T14:23:03.593Z,47584
2017-04-02T14:24:16.853Z,49184
2017-04-02T14:25:29.595Z,47584
2017-04-02T14:26:42.827Z,45696
2017-04-02T14:27:56.059Z,43456
2017-04-02T14:29:09.310Z,41312
2017-04-02T14:30:22.166Z,38304
2017-04-02T14:31:35.395Z,35136
2017-04-02T14:32:47.590Z,33824
2017-04-02T14:34:00.822Z,34144
2017-04-02T14:35:14.120Z,35904
2017-04-02T14:36:26.921Z,38848
2017-04-02T14:37:40.178Z,42816
2017-04-02T14:38:52.396Z,47168
2017-04-02T14:40:05.623Z,53024
2017-04-02T14:41:18.901Z,55072
2017-04-02T14:42:32.160Z,64416
2017-04-02T14:43:45.414Z,42272
2017-04-02T14:44:58.156Z,76640
2017-04-02T14:46:11.385Z,45344
2017-04-02T14:47:24.660Z,74560
2017-04-02T14:48:37.915Z,79520
2017-04-02T14:49:51.204Z,79808
2017-04-02T14:51:04.438Z,71584
2017-04-02T14:52:17.692Z,60064
2017-04-02T14:53:30.461Z,68832
2017-04-02T14:54:43.207Z,88352
2017-04-02T14:55:55.970Z,91136
2017-04-02T14:57:09.231Z,73312
2017-04-02T14:58:21.979Z,76000
2017-04-02T14:59:35.240Z,75040
2017-04-02T15:00:47.980Z,71136
2017-04-02T15:02:01.245Z,69568
2017-04-02T15:03:14.495Z,68736
2017-04-02T15:04:27.754Z,75648
2017-04-02T15:05:41.036Z,82976
2017-04-02T15:06:54.347Z,78848
2017-04-02T15:08:07.098Z,66016
2017-04-02T15:09:20.345Z,55936
2017-04-02T15:10:33.617Z,48672
2017-04-02T15:11:46.364Z,41760
2017-04-02T15:12:59.600Z,42528
2017-04-02T15:14:12.900Z,46816
2017-04-02T15:15:26.218Z,55072
2017-04-02T15:16:39.468Z,55936
2017-04-02T15:17:52.736Z,53312
2017-04-02T15:19:06.002Z,49440
2017-04-02T15:20:18.229Z,48032
2017-04-02T15:21:31.501Z,40320
2017-04-02T15:22:44.803Z,35840
2017-04-02T15:23:58.024Z,41248
2017-04-02T15:25:11.320Z,54368
2017-04-02T15:26:24.576Z,57408
2017-04-02T15:27:37.369Z,71392
2017-04-02T15:28:50.603Z,57632
2017-04-02T15:30:03.854Z,101536
2017-04-02T15:31:16.589Z,108832
2017-04-02T15:32:29.831Z,41472
2017-04-02T15:33:43.059Z,38016
2017-04-02T15:34:55.807Z,36864
2017-04-02T15:36:08.564Z,105376
2017-04-02T15:37:21.810Z,102240
2017-04-02T15:38:35.094Z,87552
2017-04-02T15:39:47.856Z,28160
2017-04-02T15:41:01.151Z,77792
2017-04-02T15:42:14.436Z,88800
2017-04-02T15:43:27.206Z,88800
2017-04-02T15:44:40.470Z,79840
2017-04-02T15:45:53.217Z,74112
2017-04-02T15:47:06.498Z,67424
2017-04-02T15:48:19.799Z,62272
2017-04-02T15:49:32.547Z,62016
2017-04-02T15:50:45.854Z,57024
2017-04-02T15:51:58.582Z,50784
2017-04-02T15:53:11.812Z,48576
2017-04-02T15:54:24.036Z,47776
2017-04-02T15:55:36.324Z,48416
2017-04-02T15:56:48.549Z,49280
2017-04-02T15:58:01.785Z,49760
2017-04-02T15:59:15.006Z,50496
2017-04-02T16:00:28.279Z,51072
2017-04-02T16:01:41.503Z,52896
2017-04-02T16:02:54.774Z,58656
2017-04-02T16:04:08.047Z,56064
2017-04-02T16:05:21.286Z,57248
2017-04-02T16:06:34.065Z,58816
2017-04-02T16:07:46.331Z,60480
2017-04-02T16:08:59.066Z,61248
2017-04-02T16:10:12.362Z,42464
2017-04-02T16:11:25.647Z,33632
2017-04-02T16:12:38.900Z,37376
2017-04-02T16:13:51.637Z,59968
2017-04-02T16:15:04.885Z,57696
2017-04-02T16:16:18.133Z,55040
2017-04-02T16:17:30.900Z,35424
2017-04-02T16:18:44.136Z,49312
2017-04-02T16:19:57.414Z,33504
2017-04-02T16:21:10.670Z,36416
2017-04-02T16:22:23.926Z,38912
2017-04-02T16:23:36.638Z,67616
2017-04-02T16:24:49.371Z,39424
2017-04-02T16:26:02.624Z,39872
2017-04-02T16:27:15.391Z,41632
2017-04-02T16:28:28.670Z,70624
2017-04-02T16:29:41.976Z,40800
2017-04-02T16:30:54.711Z,37824
2017-04-02T16:32:07.962Z,33312
2017-04-02T16:33:21.202Z,29344
2017-04-02T16:34:34.482Z,27456
2017-04-02T16:35:47.240Z,27072
2017-04-02T16:37:00.522Z,24992
2017-04-02T16:38:12.776Z,46016
2017-04-02T16:39:26.036Z,81504
2017-04-02T16:40:39.282Z,92000
2017-04-02T16:41:52.046Z,106624
2017-04-02T16:43:04.785Z,104096
2017-04-02T16:44:17.533Z,100000
2017-04-02T16:45:30.269Z,102496
2017-04-02T16:46:43.528Z,104960
2017-04-02T16:47:55.739Z,107776
2017-04-02T16:49:08.503Z,107200
2017-04-02T16:50:21.738Z,113056
2017-04-02T16:51:35.022Z,86688
2017-04-02T16:52:48.353Z,46752
2017-04-02T16:54:01.616Z,57696
2017-04-02T16:55:14.919Z,94432
2017-04-02T16:56:28.177Z,100160
2017-04-02T16:57:40.944Z,93696